sensor_id;sensor_type;location;lat;lon;timestamp;P1;durP1;ratioP1;P2;durP2;ratioP2
79261;SDS011;68699;48.220;16.358;2023-08-17T00:00:11;10.73;;;9.73;;
79261;SDS011;68699;48.220;16.358;2023-08-17T00:02:41;10.40;;;9.60;;
79261;SDS011;68699;48.220;16.358;2023-08-17T00:05:07;12.50;;;11.50;;
79261;SDS011;68699;48.220;16.358;2023-08-17T00:07:34;11.83;;;10.93;;
79261;SDS011;68699;48.220;16.358;2023-08-17T00:10:00;11.30;;;10.40;;
79261;SDS011;68699;48.220;16.358;2023-08-17T00:12:26;12.33;;;11.17;;
79261;SDS011;68699;48.220;16.358;2023-08-17T00:14:52;11.20;;;10.30;;
79261;SDS011;68699;48.220;16.358;2023-08-17T00:17:19;12.90;;;11.80;;
79261;SDS011;68699;48.220;16.358;2023-08-17T00:19:45;12.40;;;11.43;;
79261;SDS011;68699;48.220;16.358;2023-08-17T00:22:11;13.57;;;12.40;;
79261;SDS011;68699;48.220;16.358;2023-08-17T00:24:37;13.17;;;12.10;;
79261;SDS011;68699;48.220;16.358;2023-08-17T00:27:03;14.10;;;13.00;;
79261;SDS011;68699;48.220;16.358;2023-08-17T00:29:29;13.73;;;12.63;;
79261;SDS011;68699;48.220;16.358;2023-08-17T00:31:55;13.33;;;12.23;;
79261;SDS011;68699;48.220;16.358;2023-08-17T00:34:21;14.13;;;12.93;;
79261;SDS011;68699;48.220;16.358;2023-08-17T00:36:48;14.73;;;13.53;;
79261;SDS011;68699;48.220;16.358;2023-08-17T00:39:14;13.93;;;12.83;;
79261;SDS011;68699;48.220;16.358;2023-08-17T00:41:40;13.63;;;12.53;;
79261;SDS011;68699;48.220;16.358;2023-08-17T00:44:06;14.17;;;13.07;;
79261;SDS011;68699;48.220;16.358;2023-08-17T00:46:32;14.07;;;12.93;;
79261;SDS011;68699;48.220;16.358;2023-08-17T00:48:58;12.90;;;11.83;;
79261;SDS011;68699;48.220;16.358;2023-08-17T00:51:25;14.67;;;13.33;;
79261;SDS011;68699;48.220;16.358;2023-08-17T00:53:52;14.30;;;13.10;;
79261;SDS011;68699;48.220;16.358;2023-08-17T00:56:18;13.37;;;12.20;;
79261;SDS011;68699;48.220;16.358;2023-08-17T00:58:45;12.33;;;11.33;;
79261;SDS011;68699;48.220;16.358;2023-08-17T01:01:11;12.13;;;11.13;;
79261;SDS011;68699;48.220;16.358;2023-08-17T01:03:37;12.73;;;11.53;;
79261;SDS011;68699;48.220;16.358;2023-08-17T01:06:06;13.23;;;11.93;;
79261;SDS011;68699;48.220;16.358;2023-08-17T01:08:32;11.87;;;10.97;;
79261;SDS011;68699;48.220;16.358;2023-08-17T01:11:06;12.40;;;11.40;;
79261;SDS011;68699;48.220;16.358;2023-08-17T01:13:35;11.87;;;10.87;;
79261;SDS011;68699;48.220;16.358;2023-08-17T01:16:02;12.20;;;11.00;;
79261;SDS011;68699;48.220;16.358;2023-08-17T01:18:31;11.20;;;10.20;;
79261;SDS011;68699;48.220;16.358;2023-08-17T01:20:59;12.20;;;11.20;;
79261;SDS011;68699;48.220;16.358;2023-08-17T01:23:25;11.87;;;10.80;;
79261;SDS011;68699;48.220;16.358;2023-08-17T01:25:52;11.77;;;10.70;;
79261;SDS011;68699;48.220;16.358;2023-08-17T01:28:18;12.07;;;11.07;;
79261;SDS011;68699;48.220;16.358;2023-08-17T01:30:47;14.17;;;12.80;;
79261;SDS011;68699;48.220;16.358;2023-08-17T01:33:17;12.53;;;11.43;;
79261;SDS011;68699;48.220;16.358;2023-08-17T01:35:47;12.40;;;11.50;;
79261;SDS011;68699;48.220;16.358;2023-08-17T01:38:17;11.97;;;10.97;;
79261;SDS011;68699;48.220;16.358;2023-08-17T01:40:44;12.70;;;11.53;;
79261;SDS011;68699;48.220;16.358;2023-08-17T01:43:11;12.43;;;11.33;;
79261;SDS011;68699;48.220;16.358;2023-08-17T01:45:38;12.57;;;11.37;;
79261;SDS011;68699;48.220;16.358;2023-08-17T01:48:04;12.50;;;11.40;;
79261;SDS011;68699;48.220;16.358;2023-08-17T01:50:30;13.33;;;12.17;;
79261;SDS011;68699;48.220;16.358;2023-08-17T01:52:56;12.03;;;11.03;;
79261;SDS011;68699;48.220;16.358;2023-08-17T01:55:22;12.30;;;11.30;;
79261;SDS011;68699;48.220;16.358;2023-08-17T01:57:52;12.77;;;11.77;;
79261;SDS011;68699;48.220;16.358;2023-08-17T02:00:18;13.50;;;12.30;;
79261;SDS011;68699;48.220;16.358;2023-08-17T02:02:44;12.93;;;11.83;;
79261;SDS011;68699;48.220;16.358;2023-08-17T02:05:10;13.40;;;12.23;;
79261;SDS011;68699;48.220;16.358;2023-08-17T02:07:36;12.20;;;10.93;;
79261;SDS011;68699;48.220;16.358;2023-08-17T02:10:02;13.70;;;12.40;;
79261;SDS011;68699;48.220;16.358;2023-08-17T02:12:28;14.83;;;13.53;;
79261;SDS011;68699;48.220;16.358;2023-08-17T02:14:54;13.87;;;12.77;;
79261;SDS011;68699;48.220;16.358;2023-08-17T02:17:21;13.07;;;11.87;;
79261;SDS011;68699;48.220;16.358;2023-08-17T02:19:47;13.60;;;12.43;;
79261;SDS011;68699;48.220;16.358;2023-08-17T02:22:17;13.20;;;12.10;;
79261;SDS011;68699;48.220;16.358;2023-08-17T02:24:43;13.33;;;12.33;;
79261;SDS011;68699;48.220;16.358;2023-08-17T02:27:09;13.13;;;12.07;;
79261;SDS011;68699;48.220;16.358;2023-08-17T02:29:35;13.43;;;12.30;;
79261;SDS011;68699;48.220;16.358;2023-08-17T02:32:01;13.80;;;12.60;;
79261;SDS011;68699;48.220;16.358;2023-08-17T02:34:27;14.43;;;13.23;;
79261;SDS011;68699;48.220;16.358;2023-08-17T02:36:53;15.40;;;14.03;;
79261;SDS011;68699;48.220;16.358;2023-08-17T02:39:19;13.77;;;12.70;;
79261;SDS011;68699;48.220;16.358;2023-08-17T02:41:45;14.40;;;13.20;;
79261;SDS011;68699;48.220;16.358;2023-08-17T02:44:13;15.47;;;13.97;;
79261;SDS011;68699;48.220;16.358;2023-08-17T02:46:40;14.53;;;13.33;;
79261;SDS011;68699;48.220;16.358;2023-08-17T02:49:06;13.67;;;12.40;;
79261;SDS011;68699;48.220;16.358;2023-08-17T02:51:32;14.97;;;13.63;;
79261;SDS011;68699;48.220;16.358;2023-08-17T02:53:58;14.80;;;13.60;;
79261;SDS011;68699;48.220;16.358;2023-08-17T02:56:24;16.47;;;15.07;;
79261;SDS011;68699;48.220;16.358;2023-08-17T02:58:52;15.43;;;13.87;;
79261;SDS011;68699;48.220;16.358;2023-08-17T03:01:18;14.40;;;13.20;;
79261;SDS011;68699;48.220;16.358;2023-08-17T03:03:44;15.10;;;13.73;;
79261;SDS011;68699;48.220;16.358;2023-08-17T03:06:10;14.13;;;12.77;;
79261;SDS011;68699;48.220;16.358;2023-08-17T03:08:36;15.57;;;14.27;;
79261;SDS011;68699;48.220;16.358;2023-08-17T03:11:02;15.67;;;14.27;;
79261;SDS011;68699;48.220;16.358;2023-08-17T03:13:28;14.50;;;13.20;;
79261;SDS011;68699;48.220;16.358;2023-08-17T03:15:54;15.40;;;13.93;;
79261;SDS011;68699;48.220;16.358;2023-08-17T03:18:20;16.30;;;14.80;;
79261;SDS011;68699;48.220;16.358;2023-08-17T03:20:46;14.97;;;13.63;;
79261;SDS011;68699;48.220;16.358;2023-08-17T03:23:12;18.07;;;16.47;;
79261;SDS011;68699;48.220;16.358;2023-08-17T03:25:38;15.47;;;14.13;;
79261;SDS011;68699;48.220;16.358;2023-08-17T03:28:04;16.53;;;14.83;;
79261;SDS011;68699;48.220;16.358;2023-08-17T03:30:30;15.17;;;13.87;;
79261;SDS011;68699;48.220;16.358;2023-08-17T03:32:56;14.43;;;13.23;;
79261;SDS011;68699;48.220;16.358;2023-08-17T03:35:23;15.03;;;13.73;;
79261;SDS011;68699;48.220;16.358;2023-08-17T03:37:49;14.67;;;13.47;;
79261;SDS011;68699;48.220;16.358;2023-08-17T03:40:15;14.87;;;13.70;;
79261;SDS011;68699;48.220;16.358;2023-08-17T03:42:41;15.43;;;13.93;;
79261;SDS011;68699;48.220;16.358;2023-08-17T03:45:07;15.83;;;14.40;;
79261;SDS011;68699;48.220;16.358;2023-08-17T03:47:33;15.37;;;14.07;;
79261;SDS011;68699;48.220;16.358;2023-08-17T03:49:59;15.10;;;13.80;;
79261;SDS011;68699;48.220;16.358;2023-08-17T03:52:25;15.97;;;14.57;;
79261;SDS011;68699;48.220;16.358;2023-08-17T03:54:51;15.60;;;14.17;;
79261;SDS011;68699;48.220;16.358;2023-08-17T03:57:17;16.03;;;14.53;;
79261;SDS011;68699;48.220;16.358;2023-08-17T03:59:43;15.40;;;14.10;;
79261;SDS011;68699;48.220;16.358;2023-08-17T04:02:09;17.70;;;16.07;;
79261;SDS011;68699;48.220;16.358;2023-08-17T04:04:35;17.77;;;16.20;;
79261;SDS011;68699;48.220;16.358;2023-08-17T04:07:01;16.90;;;15.50;;
79261;SDS011;68699;48.220;16.358;2023-08-17T04:09:27;16.47;;;15.07;;
79261;SDS011;68699;48.220;16.358;2023-08-17T04:11:54;16.50;;;15.10;;
79261;SDS011;68699;48.220;16.358;2023-08-17T04:14:22;17.43;;;16.03;;
79261;SDS011;68699;48.220;16.358;2023-08-17T04:16:48;16.50;;;15.10;;
79261;SDS011;68699;48.220;16.358;2023-08-17T04:19:14;16.47;;;15.00;;
79261;SDS011;68699;48.220;16.358;2023-08-17T04:21:40;16.87;;;15.37;;
79261;SDS011;68699;48.220;16.358;2023-08-17T04:24:06;15.77;;;14.57;;
79261;SDS011;68699;48.220;16.358;2023-08-17T04:26:32;16.67;;;15.33;;
79261;SDS011;68699;48.220;16.358;2023-08-17T04:28:58;16.37;;;14.97;;
79261;SDS011;68699;48.220;16.358;2023-08-17T04:31:24;16.10;;;14.70;;
79261;SDS011;68699;48.220;16.358;2023-08-17T04:33:50;16.47;;;15.07;;
79261;SDS011;68699;48.220;16.358;2023-08-17T04:36:17;15.90;;;14.53;;
79261;SDS011;68699;48.220;16.358;2023-08-17T04:38:43;15.17;;;13.93;;
79261;SDS011;68699;48.220;16.358;2023-08-17T04:41:09;14.20;;;13.00;;
79261;SDS011;68699;48.220;16.358;2023-08-17T04:43:35;15.00;;;13.70;;
79261;SDS011;68699;48.220;16.358;2023-08-17T04:46:01;15.83;;;14.43;;
79261;SDS011;68699;48.220;16.358;2023-08-17T04:48:27;15.73;;;14.43;;
79261;SDS011;68699;48.220;16.358;2023-08-17T04:50:53;14.97;;;13.73;;
79261;SDS011;68699;48.220;16.358;2023-08-17T04:53:19;15.90;;;14.70;;
79261;SDS011;68699;48.220;16.358;2023-08-17T04:55:45;16.03;;;14.63;;
79261;SDS011;68699;48.220;16.358;2023-08-17T04:58:11;17.90;;;16.30;;
79261;SDS011;68699;48.220;16.358;2023-08-17T05:00:37;16.60;;;15.20;;
79261;SDS011;68699;48.220;16.358;2023-08-17T05:03:03;17.27;;;15.87;;
79261;SDS011;68699;48.220;16.358;2023-08-17T05:05:29;17.57;;;16.07;;
79261;SDS011;68699;48.220;16.358;2023-08-17T05:07:55;18.03;;;16.33;;
79261;SDS011;68699;48.220;16.358;2023-08-17T05:10:21;16.23;;;14.90;;
79261;SDS011;68699;48.220;16.358;2023-08-17T05:12:47;17.23;;;15.67;;
79261;SDS011;68699;48.220;16.358;2023-08-17T05:15:13;16.90;;;15.40;;
79261;SDS011;68699;48.220;16.358;2023-08-17T05:17:39;17.30;;;15.83;;
79261;SDS011;68699;48.220;16.358;2023-08-17T05:20:06;16.10;;;14.80;;
79261;SDS011;68699;48.220;16.358;2023-08-17T05:22:33;19.27;;;17.43;;
79261;SDS011;68699;48.220;16.358;2023-08-17T05:24:59;18.90;;;17.17;;
79261;SDS011;68699;48.220;16.358;2023-08-17T05:27:25;17.20;;;15.80;;
79261;SDS011;68699;48.220;16.358;2023-08-17T05:29:51;18.10;;;16.50;;
79261;SDS011;68699;48.220;16.358;2023-08-17T05:32:17;17.47;;;16.03;;
79261;SDS011;68699;48.220;16.358;2023-08-17T05:34:43;18.60;;;17.00;;
79261;SDS011;68699;48.220;16.358;2023-08-17T05:37:09;20.47;;;18.57;;
79261;SDS011;68699;48.220;16.358;2023-08-17T05:39:35;18.73;;;17.23;;
79261;SDS011;68699;48.220;16.358;2023-08-17T05:42:01;19.33;;;17.73;;
79261;SDS011;68699;48.220;16.358;2023-08-17T05:44:27;17.90;;;16.40;;
79261;SDS011;68699;48.220;16.358;2023-08-17T05:46:53;19.07;;;17.40;;
79261;SDS011;68699;48.220;16.358;2023-08-17T05:49:19;19.63;;;17.93;;
79261;SDS011;68699;48.220;16.358;2023-08-17T05:51:45;18.70;;;16.80;;
79261;SDS011;68699;48.220;16.358;2023-08-17T05:54:11;19.33;;;17.73;;
79261;SDS011;68699;48.220;16.358;2023-08-17T05:56:38;20.63;;;18.73;;
79261;SDS011;68699;48.220;16.358;2023-08-17T05:59:09;19.33;;;17.63;;
79261;SDS011;68699;48.220;16.358;2023-08-17T06:01:35;19.30;;;17.60;;
79261;SDS011;68699;48.220;16.358;2023-08-17T06:04:02;19.87;;;18.17;;
79261;SDS011;68699;48.220;16.358;2023-08-17T06:06:28;19.10;;;17.60;;
79261;SDS011;68699;48.220;16.358;2023-08-17T06:08:54;19.47;;;17.77;;
79261;SDS011;68699;48.220;16.358;2023-08-17T06:11:20;17.50;;;15.93;;
79261;SDS011;68699;48.220;16.358;2023-08-17T06:13:46;18.00;;;16.40;;
79261;SDS011;68699;48.220;16.358;2023-08-17T06:16:12;17.57;;;15.93;;
79261;SDS011;68699;48.220;16.358;2023-08-17T06:18:38;18.20;;;16.50;;
79261;SDS011;68699;48.220;16.358;2023-08-17T06:21:04;18.70;;;16.97;;
79261;SDS011;68699;48.220;16.358;2023-08-17T06:23:30;16.50;;;15.10;;
79261;SDS011;68699;48.220;16.358;2023-08-17T06:25:57;17.40;;;15.90;;
79261;SDS011;68699;48.220;16.358;2023-08-17T06:28:23;18.00;;;16.40;;
79261;SDS011;68699;48.220;16.358;2023-08-17T06:30:53;16.63;;;14.83;;
79261;SDS011;68699;48.220;16.358;2023-08-17T06:33:19;14.10;;;11.57;;
79261;SDS011;68699;48.220;16.358;2023-08-17T06:35:46;15.90;;;12.10;;
79261;SDS011;68699;48.220;16.358;2023-08-17T06:38:12;11.67;;;10.77;;
79261;SDS011;68699;48.220;16.358;2023-08-17T06:40:38;10.63;;;9.63;;
79261;SDS011;68699;48.220;16.358;2023-08-17T06:43:04;10.97;;;10.07;;
79261;SDS011;68699;48.220;16.358;2023-08-17T06:45:33;10.23;;;9.35;;
79261;SDS011;68699;48.220;16.358;2023-08-17T06:47:59;9.82;;;8.88;;
79261;SDS011;68699;48.220;16.358;2023-08-17T06:50:25;9.20;;;8.30;;
79261;SDS011;68699;48.220;16.358;2023-08-17T06:52:52;10.25;;;9.27;;
79261;SDS011;68699;48.220;16.358;2023-08-17T06:55:18;8.82;;;8.13;;
79261;SDS011;68699;48.220;16.358;2023-08-17T06:57:44;8.82;;;8.02;;
79261;SDS011;68699;48.220;16.358;2023-08-17T07:00:11;8.65;;;7.95;;
79261;SDS011;68699;48.220;16.358;2023-08-17T07:02:37;8.32;;;7.63;;
79261;SDS011;68699;48.220;16.358;2023-08-17T07:05:04;9.05;;;8.05;;
79261;SDS011;68699;48.220;16.358;2023-08-17T07:07:30;8.02;;;7.32;;
79261;SDS011;68699;48.220;16.358;2023-08-17T07:09:59;7.85;;;7.22;;
79261;SDS011;68699;48.220;16.358;2023-08-17T07:12:26;9.65;;;7.63;;
79261;SDS011;68699;48.220;16.358;2023-08-17T07:14:53;9.35;;;8.52;;
79261;SDS011;68699;48.220;16.358;2023-08-17T07:17:19;8.73;;;8.00;;
79261;SDS011;68699;48.220;16.358;2023-08-17T07:19:45;9.52;;;8.63;;
79261;SDS011;68699;48.220;16.358;2023-08-17T07:22:11;7.20;;;6.50;;
79261;SDS011;68699;48.220;16.358;2023-08-17T07:24:38;8.80;;;7.97;;
79261;SDS011;68699;48.220;16.358;2023-08-17T07:27:04;9.65;;;8.85;;
79261;SDS011;68699;48.220;16.358;2023-08-17T07:29:30;9.88;;;8.98;;
79261;SDS011;68699;48.220;16.358;2023-08-17T07:31:56;9.35;;;8.63;;
79261;SDS011;68699;48.220;16.358;2023-08-17T07:34:26;9.90;;;9.10;;
79261;SDS011;68699;48.220;16.358;2023-08-17T07:36:52;9.38;;;8.70;;
79261;SDS011;68699;48.220;16.358;2023-08-17T07:39:18;11.68;;;10.57;;
79261;SDS011;68699;48.220;16.358;2023-08-17T07:41:44;11.35;;;10.27;;
79261;SDS011;68699;48.220;16.358;2023-08-17T07:44:10;10.20;;;9.40;;
79261;SDS011;68699;48.220;16.358;2023-08-17T07:46:36;11.15;;;10.10;;
79261;SDS011;68699;48.220;16.358;2023-08-17T07:49:02;10.32;;;9.23;;
79261;SDS011;68699;48.220;16.358;2023-08-17T07:51:28;11.65;;;10.60;;
79261;SDS011;68699;48.220;16.358;2023-08-17T07:53:56;10.32;;;9.32;;
79261;SDS011;68699;48.220;16.358;2023-08-17T07:56:22;10.20;;;9.27;;
79261;SDS011;68699;48.220;16.358;2023-08-17T07:58:49;9.65;;;8.88;;
79261;SDS011;68699;48.220;16.358;2023-08-17T08:01:15;9.88;;;8.95;;
79261;SDS011;68699;48.220;16.358;2023-08-17T08:03:41;10.60;;;9.60;;
79261;SDS011;68699;48.220;16.358;2023-08-17T08:06:07;9.23;;;8.40;;
79261;SDS011;68699;48.220;16.358;2023-08-17T08:08:33;9.65;;;8.93;;
79261;SDS011;68699;48.220;16.358;2023-08-17T08:10:59;9.85;;;9.07;;
79261;SDS011;68699;48.220;16.358;2023-08-17T08:13:25;12.23;;;9.60;;
79261;SDS011;68699;48.220;16.358;2023-08-17T08:15:51;10.73;;;9.73;;
79261;SDS011;68699;48.220;16.358;2023-08-17T08:18:17;10.25;;;9.45;;
79261;SDS011;68699;48.220;16.358;2023-08-17T08:20:43;11.55;;;10.45;;
79261;SDS011;68699;48.220;16.358;2023-08-17T08:23:09;11.50;;;10.43;;
79261;SDS011;68699;48.220;16.358;2023-08-17T08:25:35;12.05;;;10.98;;
79261;SDS011;68699;48.220;16.358;2023-08-17T08:28:01;10.98;;;9.93;;
79261;SDS011;68699;48.220;16.358;2023-08-17T08:30:27;10.60;;;9.63;;
79261;SDS011;68699;48.220;16.358;2023-08-17T08:32:53;12.50;;;11.30;;
79261;SDS011;68699;48.220;16.358;2023-08-17T08:35:22;12.40;;;11.40;;
79261;SDS011;68699;48.220;16.358;2023-08-17T08:37:49;12.97;;;11.87;;
79261;SDS011;68699;48.220;16.358;2023-08-17T08:40:15;12.52;;;11.32;;
79261;SDS011;68699;48.220;16.358;2023-08-17T08:42:42;12.55;;;11.20;;
79261;SDS011;68699;48.220;16.358;2023-08-17T08:45:08;13.02;;;11.82;;
79261;SDS011;68699;48.220;16.358;2023-08-17T08:47:35;11.65;;;10.65;;
79261;SDS011;68699;48.220;16.358;2023-08-17T08:50:03;12.52;;;11.23;;
79261;SDS011;68699;48.220;16.358;2023-08-17T08:52:33;12.88;;;11.68;;
79261;SDS011;68699;48.220;16.358;2023-08-17T08:55:19;12.30;;;11.20;;
79261;SDS011;68699;48.220;16.358;2023-08-17T08:57:47;12.02;;;11.00;;
79261;SDS011;68699;48.220;16.358;2023-08-17T09:00:14;12.82;;;11.65;;
79261;SDS011;68699;48.220;16.358;2023-08-17T09:02:41;12.68;;;11.60;;
79261;SDS011;68699;48.220;16.358;2023-08-17T09:05:09;12.13;;;11.13;;
79261;SDS011;68699;48.220;16.358;2023-08-17T09:07:35;11.97;;;10.97;;
79261;SDS011;68699;48.220;16.358;2023-08-17T09:10:03;11.60;;;10.50;;
79261;SDS011;68699;48.220;16.358;2023-08-17T09:12:29;12.57;;;11.47;;
79261;SDS011;68699;48.220;16.358;2023-08-17T09:14:55;11.70;;;10.60;;
79261;SDS011;68699;48.220;16.358;2023-08-17T09:17:25;11.38;;;10.40;;
79261;SDS011;68699;48.220;16.358;2023-08-17T09:19:51;10.90;;;9.90;;
79261;SDS011;68699;48.220;16.358;2023-08-17T09:22:24;10.07;;;9.18;;
79261;SDS011;68699;48.220;16.358;2023-08-17T09:24:50;10.10;;;9.27;;
79261;SDS011;68699;48.220;16.358;2023-08-17T09:27:16;9.70;;;8.90;;
79261;SDS011;68699;48.220;16.358;2023-08-17T09:29:43;10.45;;;9.55;;
79261;SDS011;68699;48.220;16.358;2023-08-17T09:32:10;11.15;;;9.40;;
79261;SDS011;68699;48.220;16.358;2023-08-17T09:34:36;9.60;;;8.80;;
79261;SDS011;68699;48.220;16.358;2023-08-17T09:37:06;9.95;;;9.13;;
79261;SDS011;68699;48.220;16.358;2023-08-17T09:39:32;10.90;;;9.68;;
79261;SDS011;68699;48.220;16.358;2023-08-17T09:41:59;9.23;;;8.52;;
79261;SDS011;68699;48.220;16.358;2023-08-17T09:44:25;9.40;;;8.60;;
79261;SDS011;68699;48.220;16.358;2023-08-17T09:46:54;8.13;;;7.53;;
79261;SDS011;68699;48.220;16.358;2023-08-17T09:49:22;9.80;;;8.82;;
79261;SDS011;68699;48.220;16.358;2023-08-17T09:51:48;9.75;;;8.95;;
79261;SDS011;68699;48.220;16.358;2023-08-17T09:54:18;9.45;;;8.65;;
79261;SDS011;68699;48.220;16.358;2023-08-17T09:56:45;9.10;;;8.40;;
79261;SDS011;68699;48.220;16.358;2023-08-17T09:59:11;8.65;;;8.05;;
79261;SDS011;68699;48.220;16.358;2023-08-17T10:01:37;8.65;;;7.95;;
79261;SDS011;68699;48.220;16.358;2023-08-17T10:04:03;8.82;;;8.13;;
79261;SDS011;68699;48.220;16.358;2023-08-17T10:06:30;9.07;;;8.18;;
79261;SDS011;68699;48.220;16.358;2023-08-17T10:08:57;8.60;;;7.80;;
79261;SDS011;68699;48.220;16.358;2023-08-17T10:11:24;8.50;;;7.72;;
79261;SDS011;68699;48.220;16.358;2023-08-17T10:16:29;8.68;;;8.07;;
79261;SDS011;68699;48.220;16.358;2023-08-17T10:19:00;8.38;;;7.78;;
79261;SDS011;68699;48.220;16.358;2023-08-17T10:21:36;8.95;;;8.05;;
79261;SDS011;68699;48.220;16.358;2023-08-17T10:24:03;7.75;;;7.05;;
79261;SDS011;68699;48.220;16.358;2023-08-17T10:26:30;7.30;;;6.57;;
79261;SDS011;68699;48.220;16.358;2023-08-17T10:28:56;6.75;;;6.20;;
79261;SDS011;68699;48.220;16.358;2023-08-17T10:31:25;6.80;;;6.20;;
79261;SDS011;68699;48.220;16.358;2023-08-17T10:33:51;8.98;;;6.75;;
79261;SDS011;68699;48.220;16.358;2023-08-17T10:36:17;7.50;;;6.82;;
79261;SDS011;68699;48.220;16.358;2023-08-17T10:38:44;8.02;;;7.32;;
79261;SDS011;68699;48.220;16.358;2023-08-17T10:41:10;6.75;;;6.15;;
79261;SDS011;68699;48.220;16.358;2023-08-17T10:43:52;7.40;;;6.70;;
79261;SDS011;68699;48.220;16.358;2023-08-17T10:46:19;6.88;;;6.28;;
79261;SDS011;68699;48.220;16.358;2023-08-17T10:48:45;7.93;;;7.20;;
79261;SDS011;68699;48.220;16.358;2023-08-17T10:51:11;7.72;;;7.00;;
79261;SDS011;68699;48.220;16.358;2023-08-17T10:53:42;7.70;;;7.00;;
79261;SDS011;68699;48.220;16.358;2023-08-17T10:56:12;7.25;;;6.53;;
79261;SDS011;68699;48.220;16.358;2023-08-17T10:58:38;6.22;;;5.82;;
79261;SDS011;68699;48.220;16.358;2023-08-17T11:01:06;7.20;;;6.50;;
79261;SDS011;68699;48.220;16.358;2023-08-17T11:03:32;6.20;;;5.80;;
79261;SDS011;68699;48.220;16.358;2023-08-17T11:05:58;6.20;;;5.80;;
79261;SDS011;68699;48.220;16.358;2023-08-17T11:08:39;6.20;;;5.80;;
79261;SDS011;68699;48.220;16.358;2023-08-17T11:11:06;6.63;;;6.03;;
79261;SDS011;68699;48.220;16.358;2023-08-17T11:13:33;6.32;;;5.82;;
79261;SDS011;68699;48.220;16.358;2023-08-17T11:16:00;6.68;;;6.18;;
79261;SDS011;68699;48.220;16.358;2023-08-17T11:18:26;7.20;;;6.60;;
79261;SDS011;68699;48.220;16.358;2023-08-17T11:20:53;6.50;;;5.90;;
79261;SDS011;68699;48.220;16.358;2023-08-17T11:23:19;5.95;;;5.43;;
79261;SDS011;68699;48.220;16.358;2023-08-17T11:25:46;6.45;;;5.95;;
79261;SDS011;68699;48.220;16.358;2023-08-17T11:28:12;7.93;;;7.22;;
79261;SDS011;68699;48.220;16.358;2023-08-17T11:30:39;7.07;;;6.50;;
79261;SDS011;68699;48.220;16.358;2023-08-17T11:33:07;6.88;;;6.28;;
79261;SDS011;68699;48.220;16.358;2023-08-17T11:35:33;6.60;;;6.05;;
79261;SDS011;68699;48.220;16.358;2023-08-17T11:37:59;5.88;;;5.43;;
79261;SDS011;68699;48.220;16.358;2023-08-17T11:40:27;6.88;;;6.18;;
79261;SDS011;68699;48.220;16.358;2023-08-17T11:42:53;5.88;;;5.45;;
79261;SDS011;68699;48.220;16.358;2023-08-17T11:45:19;6.03;;;5.53;;
79261;SDS011;68699;48.220;16.358;2023-08-17T11:47:46;6.75;;;6.25;;
79261;SDS011;68699;48.220;16.358;2023-08-17T11:50:13;6.25;;;5.65;;
79261;SDS011;68699;48.220;16.358;2023-08-17T11:52:39;6.07;;;5.60;;
79261;SDS011;68699;48.220;16.358;2023-08-17T11:55:06;6.22;;;5.60;;
79261;SDS011;68699;48.220;16.358;2023-08-17T11:57:32;7.78;;;6.97;;
79261;SDS011;68699;48.220;16.358;2023-08-17T11:59:59;6.72;;;6.22;;
79261;SDS011;68699;48.220;16.358;2023-08-17T12:02:29;6.57;;;5.97;;
79261;SDS011;68699;48.220;16.358;2023-08-17T12:04:56;6.40;;;5.90;;
79261;SDS011;68699;48.220;16.358;2023-08-17T12:07:25;7.47;;;6.78;;
79261;SDS011;68699;48.220;16.358;2023-08-17T12:09:52;6.50;;;5.90;;
79261;SDS011;68699;48.220;16.358;2023-08-17T12:12:18;6.40;;;5.80;;
79261;SDS011;68699;48.220;16.358;2023-08-17T12:14:46;6.53;;;5.93;;
79261;SDS011;68699;48.220;16.358;2023-08-17T12:17:19;6.63;;;5.88;;
79261;SDS011;68699;48.220;16.358;2023-08-17T12:19:48;6.45;;;5.85;;
79261;SDS011;68699;48.220;16.358;2023-08-17T12:22:16;6.85;;;6.28;;
79261;SDS011;68699;48.220;16.358;2023-08-17T12:24:42;7.15;;;6.45;;
79261;SDS011;68699;48.220;16.358;2023-08-17T12:27:09;7.30;;;6.60;;
79261;SDS011;68699;48.220;16.358;2023-08-17T12:29:47;8.60;;;6.70;;
79261;SDS011;68699;48.220;16.358;2023-08-17T12:32:14;7.00;;;6.45;;
79261;SDS011;68699;48.220;16.358;2023-08-17T12:34:40;8.13;;;6.35;;
79261;SDS011;68699;48.220;16.358;2023-08-17T12:37:10;7.13;;;6.40;;
79261;SDS011;68699;48.220;16.358;2023-08-17T12:39:37;9.18;;;6.45;;
79261;SDS011;68699;48.220;16.358;2023-08-17T12:42:03;7.32;;;6.15;;
79261;SDS011;68699;48.220;16.358;2023-08-17T12:44:29;7.50;;;6.35;;
79261;SDS011;68699;48.220;16.358;2023-08-17T12:46:55;6.28;;;5.75;;
79261;SDS011;68699;48.220;16.358;2023-08-17T12:49:22;6.53;;;5.95;;
79261;SDS011;68699;48.220;16.358;2023-08-17T12:51:49;6.82;;;6.10;;
79261;SDS011;68699;48.220;16.358;2023-08-17T12:54:15;6.53;;;6.03;;
79261;SDS011;68699;48.220;16.358;2023-08-17T12:56:41;7.00;;;6.40;;
79261;SDS011;68699;48.220;16.358;2023-08-17T12:59:07;6.15;;;5.65;;
79261;SDS011;68699;48.220;16.358;2023-08-17T13:01:33;6.07;;;5.45;;
79261;SDS011;68699;48.220;16.358;2023-08-17T13:03:59;7.90;;;5.70;;
79261;SDS011;68699;48.220;16.358;2023-08-17T13:06:25;6.35;;;5.80;;
79261;SDS011;68699;48.220;16.358;2023-08-17T13:08:51;5.65;;;5.15;;
79261;SDS011;68699;48.220;16.358;2023-08-17T13:11:17;5.47;;;4.90;;
79261;SDS011;68699;48.220;16.358;2023-08-17T13:13:43;6.13;;;5.53;;
79261;SDS011;68699;48.220;16.358;2023-08-17T13:16:09;6.15;;;5.43;;
79261;SDS011;68699;48.220;16.358;2023-08-17T13:18:36;5.93;;;5.43;;
79261;SDS011;68699;48.220;16.358;2023-08-17T13:21:03;5.57;;;5.07;;
79261;SDS011;68699;48.220;16.358;2023-08-17T13:23:29;5.75;;;5.05;;
79261;SDS011;68699;48.220;16.358;2023-08-17T13:25:55;6.00;;;5.50;;
79261;SDS011;68699;48.220;16.358;2023-08-17T13:28:21;5.80;;;5.30;;
79261;SDS011;68699;48.220;16.358;2023-08-17T13:30:47;5.93;;;5.35;;
79261;SDS011;68699;48.220;16.358;2023-08-17T13:33:13;6.25;;;5.70;;
79261;SDS011;68699;48.220;16.358;2023-08-17T13:35:41;6.43;;;5.82;;
79261;SDS011;68699;48.220;16.358;2023-08-17T13:38:07;5.65;;;5.18;;
79261;SDS011;68699;48.220;16.358;2023-08-17T13:40:33;5.80;;;5.40;;
79261;SDS011;68699;48.220;16.358;2023-08-17T13:43:01;5.53;;;4.97;;
79261;SDS011;68699;48.220;16.358;2023-08-17T13:45:28;5.50;;;5.07;;
79261;SDS011;68699;48.220;16.358;2023-08-17T13:47:54;6.05;;;5.55;;
79261;SDS011;68699;48.220;16.358;2023-08-17T13:50:20;6.35;;;5.82;;
79261;SDS011;68699;48.220;16.358;2023-08-17T13:52:46;5.80;;;5.20;;
79261;SDS011;68699;48.220;16.358;2023-08-17T13:55:13;6.43;;;5.00;;
79261;SDS011;68699;48.220;16.358;2023-08-17T13:57:39;5.93;;;5.35;;
79261;SDS011;68699;48.220;16.358;2023-08-17T14:00:05;6.55;;;5.90;;
79261;SDS011;68699;48.220;16.358;2023-08-17T14:02:31;6.45;;;5.68;;
79261;SDS011;68699;48.220;16.358;2023-08-17T14:04:57;7.03;;;6.40;;
79261;SDS011;68699;48.220;16.358;2023-08-17T14:07:23;6.47;;;5.85;;
79261;SDS011;68699;48.220;16.358;2023-08-17T14:09:49;6.05;;;5.55;;
79261;SDS011;68699;48.220;16.358;2023-08-17T14:12:15;5.95;;;5.45;;
79261;SDS011;68699;48.220;16.358;2023-08-17T14:14:41;7.45;;;5.50;;
79261;SDS011;68699;48.220;16.358;2023-08-17T14:17:07;6.05;;;5.65;;
79261;SDS011;68699;48.220;16.358;2023-08-17T14:19:33;7.45;;;5.95;;